Time;durP1;ratioP1;P1;durP2;ratioP2;P2;SDS_P1;SDS_P2;PMS_P1;PMS_P2;Temp;Humidity;BMP_temperature;BMP_pressure;BME280_temperature;BME280_humidity;BME280_pressure;Samples;Min_cycle;Max_cycle;Signal;HPM_P1;HPM_P2
2022/10/18 00:00:14;;;;;;;21.50;19.70;;;15.70;99.90;;;;;;5083597;28;20972;-69
2022/10/18 00:02:41;;;;;;;21.13;19.03;;;15.70;99.90;;;;;;5080214;28;20570;-71
2022/10/18 00:05:09;;;;;;;21.80;20.10;;;15.70;99.90;;;;;;5084625;28;20464;-70
2022/10/18 00:07:35;;;;;;;22.10;20.17;;;15.70;99.90;;;;;;5080977;28;20450;-71
2022/10/18 00:10:03;;;;;;;21.33;19.63;;;15.70;99.90;;;;;;5084636;28;20466;-69
2022/10/18 00:12:33;;;;;;;22.33;20.73;;;15.70;99.90;;;;;;5087499;28;20964;-69
2022/10/18 00:15:01;;;;;;;20.63;19.20;;;15.80;99.90;;;;;;5082555;28;20627;-70
2022/10/18 00:17:29;;;;;;;25.57;20.40;;;15.80;99.90;;;;;;5085928;28;20488;-70
2022/10/18 00:19:56;;;;;;;23.70;21.57;;;15.80;99.90;;;;;;5089221;28;20464;-71
2022/10/18 00:25:06;;;;;;;21.40;19.70;;;15.80;99.90;;;;;;5091600;28;20490;-70
2022/10/18 00:27:34;;;;;;;21.60;19.80;;;15.80;99.90;;;;;;5087814;28;20559;-70
2022/10/18 00:30:03;;;;;;;21.93;20.27;;;15.80;99.90;;;;;;5082324;28;20467;-69
2022/10/18 00:32:30;;;;;;;21.27;19.63;;;15.80;99.90;;;;;;5087581;28;20469;-70
2022/10/18 00:34:57;;;;;;;23.63;21.50;;;15.70;99.90;;;;;;5087004;28;20854;-69
2022/10/18 00:37:24;;;;;;;23.33;19.47;;;15.70;99.90;;;;;;5085809;28;20458;-70
2022/10/18 00:39:50;;;;;;;22.87;20.53;;;15.70;99.90;;;;;;5098520;28;20453;-70
2022/10/18 00:42:19;;;;;;;22.53;20.43;;;15.70;99.90;;;;;;5084131;28;20494;-70
2022/10/18 00:45:14;;;;;;;23.30;21.50;;;15.70;99.90;;;;;;5085037;28;20993;-70
2022/10/18 00:47:42;;;;;;;22.50;20.80;;;15.60;99.90;;;;;;5087071;28;20955;-68
2022/10/18 00:50:10;;;;;;;24.27;22.37;;;15.70;99.90;;;;;;5086118;28;20458;-69
2022/10/18 00:52:42;;;;;;;24.40;22.47;;;15.80;99.90;;;;;;5078074;28;20462;-69
2022/10/18 00:55:09;;;;;;;23.20;21.00;;;15.70;99.90;;;;;;5085767;28;20976;-69
2022/10/18 00:57:37;;;;;;;24.47;22.00;;;15.70;99.90;;;;;;5099411;28;20462;-69
2022/10/18 01:00:08;;;;;;;23.30;21.30;;;15.70;99.90;;;;;;5080680;28;20837;-70
2022/10/18 01:02:36;;;;;;;24.37;21.93;;;15.70;99.90;;;;;;5083552;28;20506;-69
2022/10/18 01:05:03;;;;;;;24.53;22.50;;;15.70;99.90;;;;;;5087888;28;20496;-69
2022/10/18 01:07:52;;;;;;;25.90;23.47;;;15.70;99.90;;;;;;5084184;28;20465;-69
2022/10/18 01:10:26;;;;;;;24.47;22.57;;;15.70;99.90;;;;;;5086571;28;20458;-70
2022/10/18 01:13:07;;;;;;;25.17;23.13;;;15.70;99.90;;;;;;5089516;28;20996;-70
2022/10/18 01:15:43;;;;;;;26.07;23.33;;;15.70;99.90;;;;;;5080690;28;20458;-71
2022/10/18 01:18:18;;;;;;;28.00;25.33;;;15.80;99.90;;;;;;5079933;28;20468;-69
2022/10/18 01:21:16;;;;;;;27.03;24.40;;;15.80;99.90;;;;;;5086451;28;20474;-70
2022/10/18 01:24:34;;;;;;;32.50;24.97;;;15.80;99.90;;;;;;5088295;28;20527;-69
2022/10/18 01:27:27;;;;;;;29.83;26.57;;;15.80;99.90;;;;;;5087473;28;20492;-70
2022/10/18 01:30:34;;;;;;;28.70;25.07;;;15.80;99.90;;;;;;5096597;28;20466;-70
2022/10/18 01:33:07;;;;;;;28.83;25.80;;;15.80;99.90;;;;;;5079879;28;20457;-71
2022/10/18 01:35:40;;;;;;;40.07;26.73;;;15.80;99.90;;;;;;5096110;28;20465;-70
2022/10/18 01:38:12;;;;;;;32.13;25.97;;;15.80;99.90;;;;;;5092948;28;20500;-71
2022/10/18 01:40:42;;;;;;;27.07;24.23;;;15.80;99.90;;;;;;5095389;28;20810;-72
2022/10/18 01:43:10;;;;;;;27.93;23.40;;;15.80;99.90;;;;;;5093546;28;20580;-70
2022/10/18 01:45:37;;;;;;;29.60;24.00;;;15.80;99.90;;;;;;5093328;28;20485;-69
2022/10/18 01:48:06;;;;;;;28.27;22.50;;;15.80;99.90;;;;;;5095176;28;20463;-69
2022/10/18 01:50:34;;;;;;;25.53;23.03;;;15.80;99.90;;;;;;5090808;28;21116;-69
2022/10/18 01:53:02;;;;;;;28.53;23.53;;;15.80;99.90;;;;;;5095566;28;20466;-69
2022/10/18 01:55:37;;;;;;;34.20;23.10;;;15.80;99.90;;;;;;5092129;28;20457;-69
2022/10/18 01:58:13;;;;;;;30.43;24.57;;;15.80;99.90;;;;;;5095830;28;20511;-69
2022/10/18 02:00:43;;;;;;;24.83;22.50;;;15.80;99.90;;;;;;5095169;28;20709;-69
2022/10/18 02:03:21;;;;;;;27.40;23.30;;;15.80;99.90;;;;;;5090652;28;20565;-69
2022/10/18 02:05:54;;;;;;;26.63;23.30;;;15.80;99.90;;;;;;5093744;28;20462;-69
2022/10/18 02:08:27;;;;;;;24.67;22.20;;;15.80;99.90;;;;;;5095077;28;20458;-69
2022/10/18 02:10:57;;;;;;;46.97;24.87;;;15.90;99.90;;;;;;5098153;28;20461;-69
2022/10/18 02:13:29;;;;;;;32.90;23.63;;;15.90;99.90;;;;;;5089854;28;20470;-71
2022/10/18 02:16:01;;;;;;;43.13;23.90;;;15.80;99.90;;;;;;5088155;28;20469;-69
2022/10/18 02:18:34;;;;;;;32.30;24.43;;;15.80;99.90;;;;;;5097169;28;20454;-70
2022/10/18 02:21:03;;;;;;;38.37;24.93;;;15.70;99.90;;;;;;5096197;28;20527;-69
2022/10/18 02:23:32;;;;;;;27.03;23.37;;;15.70;99.90;;;;;;5090926;28;20626;-70
2022/10/18 02:25:59;;;;;;;31.10;23.87;;;15.80;99.90;;;;;;5088976;28;20454;-70
2022/10/18 02:28:26;;;;;;;26.17;23.50;;;15.70;99.90;;;;;;5106446;27;20941;-70
2022/10/18 02:31:00;;;;;;;31.07;23.90;;;15.70;99.90;;;;;;5110585;27;20471;-70
2022/10/18 02:33:33;;;;;;;25.27;22.67;;;15.80;99.90;;;;;;5108581;27;20461;-69
2022/10/18 02:36:05;;;;;;;40.50;25.17;;;15.70;99.90;;;;;;5109042;27;21096;-71
2022/10/18 02:38:32;;;;;;;28.50;25.60;;;15.70;99.90;;;;;;5112867;27;20465;-71
2022/10/18 02:40:59;;;;;;;27.80;24.77;;;15.80;99.90;;;;;;5115825;27;20974;-70
2022/10/18 02:43:28;;;;;;;37.00;25.40;;;15.80;99.90;;;;;;5110596;27;20492;-70
2022/10/18 02:45:55;;;;;;;41.50;24.83;;;15.90;99.90;;;;;;5108712;27;20556;-70
2022/10/18 02:48:22;;;;;;;33.03;23.50;;;15.80;99.90;;;;;;5110571;27;20458;-70
2022/10/18 02:50:50;;;;;;;33.17;23.50;;;15.80;99.90;;;;;;5109613;27;20963;-70
2022/10/18 02:53:18;;;;;;;27.23;23.77;;;15.90;99.90;;;;;;5114290;27;20992;-69
2022/10/18 02:55:44;;;;;;;42.47;25.03;;;15.90;99.90;;;;;;5111032;27;20975;-69
2022/10/18 02:58:13;;;;;;;39.43;23.50;;;16.00;99.90;;;;;;5109963;27;20469;-70
2022/10/18 03:00:40;;;;;;;32.20;25.10;;;16.00;99.90;;;;;;5108139;27;20834;-70
2022/10/18 03:03:07;;;;;;;38.50;25.07;;;16.00;99.90;;;;;;5106328;27;20480;-70
2022/10/18 03:05:34;;;;;;;31.50;24.10;;;16.00;99.90;;;;;;5111039;27;20457;-71
2022/10/18 03:08:03;;;;;;;37.30;24.00;;;15.90;99.90;;;;;;5110106;27;20453;-69
2022/10/18 03:10:30;;;;;;;31.40;26.43;;;15.90;99.90;;;;;;5111084;27;20470;-70
2022/10/18 03:12:57;;;;;;;30.40;23.90;;;15.90;99.90;;;;;;5114633;27;20467;-70
2022/10/18 03:15:24;;;;;;;34.53;24.90;;;16.00;99.90;;;;;;5109049;28;20452;-70
2022/10/18 03:17:51;;;;;;;31.40;26.30;;;16.00;99.90;;;;;;5110827;28;20471;-70
2022/10/18 03:20:18;;;;;;;29.93;25.07;;;16.00;99.90;;;;;;5113608;28;20464;-70
2022/10/18 03:22:45;;;;;;;36.63;26.10;;;16.00;99.90;;;;;;5110443;28;20481;-68
2022/10/18 03:25:14;;;;;;;35.83;25.10;;;16.00;99.90;;;;;;5110390;28;20485;-71
2022/10/18 03:27:41;;;;;;;32.93;25.73;;;16.00;99.90;;;;;;5114483;28;20478;-71
2022/10/18 03:30:10;;;;;;;34.87;25.97;;;16.00;99.90;;;;;;5109738;28;20544;-71
2022/10/18 03:32:39;;;;;;;44.83;25.57;;;15.90;99.90;;;;;;5109539;28;20762;-72
2022/10/18 03:35:06;;;;;;;48.03;28.27;;;16.00;99.90;;;;;;5110261;28;20469;-70
2022/10/18 03:37:33;;;;;;;52.30;27.00;;;16.00;99.90;;;;;;5110017;28;20461;-72
2022/10/18 03:40:01;;;;;;;43.73;26.70;;;16.00;99.90;;;;;;5112267;28;20856;-72
2022/10/18 03:42:29;;;;;;;51.80;26.97;;;16.10;99.90;;;;;;5110469;28;20495;-71
2022/10/18 03:44:56;;;;;;;40.67;26.43;;;16.10;99.90;;;;;;5109306;28;20462;-73
2022/10/18 03:47:23;;;;;;;46.63;27.00;;;16.00;99.90;;;;;;5110280;27;20448;-72
2022/10/18 03:49:49;;;;;;;40.50;24.53;;;16.00;99.90;;;;;;5110955;27;20814;-71
2022/10/18 03:52:16;;;;;;;45.47;26.60;;;16.10;99.90;;;;;;5118096;27;21037;-71
2022/10/18 03:54:44;;;;;;;58.17;26.87;;;16.00;99.90;;;;;;5117363;27;20473;-71
2022/10/18 03:57:11;;;;;;;41.43;27.87;;;16.00;99.90;;;;;;5115010;27;20851;-72
2022/10/18 03:59:39;;;;;;;72.13;29.90;;;16.10;99.90;;;;;;5113435;27;20814;-71
2022/10/18 04:02:06;;;;;;;59.53;29.47;;;16.00;99.90;;;;;;5108224;27;20510;-70
2022/10/18 04:04:33;;;;;;;37.77;29.50;;;16.00;99.90;;;;;;5113581;27;20463;-70
2022/10/18 04:07:00;;;;;;;39.70;28.20;;;16.00;99.90;;;;;;5108884;27;20461;-71
2022/10/18 04:09:27;;;;;;;48.73;29.87;;;16.00;99.90;;;;;;5113813;27;20492;-69
2022/10/18 04:11:54;;;;;;;59.53;31.63;;;16.00;99.90;;;;;;5110123;27;20464;-70
2022/10/18 04:14:21;;;;;;;79.97;31.80;;;16.00;99.90;;;;;;5109089;27;20471;-72
2022/10/18 04:16:50;;;;;;;54.40;31.77;;;16.00;99.90;;;;;;5106893;27;20464;-71
2022/10/18 04:19:17;;;;;;;43.17;30.27;;;16.00;99.90;;;;;;5111266;27;20542;-71
2022/10/18 04:21:43;;;;;;;55.20;30.50;;;16.00;99.90;;;;;;5115931;27;20461;-71
2022/10/18 04:24:11;;;;;;;36.93;29.93;;;16.00;99.90;;;;;;5116652;27;20489;-69
2022/10/18 04:26:38;;;;;;;43.30;31.80;;;16.00;99.90;;;;;;5111371;27;20460;-70
2022/10/18 04:29:05;;;;;;;46.20;30.20;;;16.00;99.90;;;;;;5086392;28;20481;-71
2022/10/18 04:31:32;;;;;;;37.77;30.53;;;16.00;99.90;;;;;;5089973;28;20473;-70
2022/10/18 04:34:01;;;;;;;46.37;33.20;;;16.00;99.90;;;;;;5079882;28;20497;-69
2022/10/18 04:36:28;;;;;;;39.87;31.90;;;16.00;99.90;;;;;;5082886;28;20898;-69
2022/10/18 04:38:55;;;;;;;38.77;30.83;;;16.00;99.90;;;;;;5080565;28;20457;-71
2022/10/18 04:41:22;;;;;;;48.90;32.37;;;16.00;99.90;;;;;;5088053;28;20469;-69
2022/10/18 04:43:49;;;;;;;39.67;33.37;;;15.90;99.90;;;;;;5080299;28;20489;-71
2022/10/18 04:46:15;;;;;;;42.40;30.73;;;15.90;99.90;;;;;;5089453;28;20465;-71
2022/10/18 04:48:42;;;;;;;39.53;31.30;;;15.90;99.90;;;;;;5087512;28;20446;-70
2022/10/18 04:51:11;;;;;;;41.17;33.53;;;15.90;99.90;;;;;;5082396;28;20458;-70
2022/10/18 04:53:38;;;;;;;43.70;33.87;;;15.80;99.90;;;;;;5084408;28;20983;-70
2022/10/18 04:56:06;;;;;;;42.20;33.33;;;15.80;99.90;;;;;;5082077;28;20466;-70
2022/10/18 04:58:33;;;;;;;49.80;34.87;;;15.80;99.90;;;;;;5086017;28;20466;-72
2022/10/18 05:01:00;;;;;;;43.60;33.67;;;15.80;99.90;;;;;;5083255;28;20485;-73
2022/10/18 05:03:27;;;;;;;51.30;35.37;;;15.80;99.90;;;;;;5087572;28;20524;-73
2022/10/18 05:05:54;;;;;;;36.37;32.40;;;15.80;99.90;;;;;;5084377;28;20460;-72
2022/10/18 05:08:22;;;;;;;37.30;33.33;;;15.80;99.90;;;;;;5081113;28;20465;-72
2022/10/18 05:10:49;;;;;;;39.23;31.37;;;15.90;99.90;;;;;;5080852;28;20473;-70
2022/10/18 05:13:15;;;;;;;37.53;31.10;;;15.90;99.90;;;;;;5086801;28;20466;-69
2022/10/18 05:15:42;;;;;;;37.70;31.40;;;15.80;99.90;;;;;;5082892;28;20475;-70
2022/10/18 05:18:10;;;;;;;39.47;34.70;;;15.80;99.90;;;;;;5085064;28;20450;-72
2022/10/18 05:20:38;;;;;;;46.63;34.20;;;15.80;99.90;;;;;;5078106;28;20528;-71
2022/10/18 05:23:04;;;;;;;41.43;33.60;;;15.80;99.90;;;;;;5085753;28;20485;-70
2022/10/18 05:25:32;;;;;;;41.87;33.17;;;15.90;99.90;;;;;;5077464;28;20466;-71
2022/10/18 05:28:00;;;;;;;43.20;34.10;;;15.90;99.90;;;;;;5087402;28;20482;-70
2022/10/18 05:30:26;;;;;;;39.87;34.50;;;15.80;99.90;;;;;;5087587;28;20801;-71
2022/10/18 05:32:53;;;;;;;52.17;33.80;;;15.80;99.90;;;;;;5085911;28;20551;-71
2022/10/18 05:35:20;;;;;;;38.83;33.20;;;15.80;99.90;;;;;;5090465;28;20477;-69
2022/10/18 05:37:47;;;;;;;48.00;35.33;;;15.70;99.90;;;;;;5094211;28;20466;-71
2022/10/18 05:40:14;;;;;;;53.30;37.00;;;15.70;99.90;;;;;;5092375;28;20457;-70
2022/10/18 05:42:42;;;;;;;47.40;36.27;;;15.70;99.90;;;;;;5087928;28;20829;-70
2022/10/18 05:45:10;;;;;;;54.83;35.87;;;15.70;99.90;;;;;;5092239;28;20454;-69
2022/10/18 05:47:37;;;;;;;53.17;37.43;;;15.70;99.90;;;;;;5096073;28;20835;-69
2022/10/18 05:50:05;;;;;;;57.80;35.60;;;15.80;99.90;;;;;;5097860;28;20502;-70
2022/10/18 05:52:31;;;;;;;55.07;36.90;;;15.70;99.90;;;;;;5090563;28;20466;-69
2022/10/18 05:54:58;;;;;;;49.13;36.67;;;15.70;99.90;;;;;;5089903;28;21213;-71
2022/10/18 05:57:25;;;;;;;47.10;34.30;;;15.80;99.90;;;;;;5090643;28;21004;-71
2022/10/18 05:59:53;;;;;;;41.60;33.50;;;15.80;99.90;;;;;;5094825;28;20464;-71
2022/10/18 06:02:20;;;;;;;42.73;34.60;;;15.80;99.90;;;;;;5086689;28;20521;-70
2022/10/18 06:04:47;;;;;;;52.80;35.00;;;15.80;99.90;;;;;;5095852;28;20488;-69
2022/10/18 06:07:14;;;;;;;57.33;35.00;;;15.70;99.90;;;;;;5088095;28;20478;-70
2022/10/18 06:09:40;;;;;;;40.10;33.10;;;15.70;99.90;;;;;;5085405;28;20468;-72
2022/10/18 06:12:07;;;;;;;44.37;33.67;;;15.60;99.90;;;;;;5090457;28;20852;-70
2022/10/18 06:14:35;;;;;;;52.80;37.13;;;15.70;99.90;;;;;;5090721;28;20870;-70
2022/10/18 06:17:03;;;;;;;101.70;40.60;;;15.60;99.90;;;;;;5082732;28;20462;-71
2022/10/18 06:19:30;;;;;;;62.57;37.67;;;15.60;99.90;;;;;;5084755;28;20470;-71
2022/10/18 06:21:57;;;;;;;56.03;35.60;;;15.60;99.90;;;;;;5087714;28;20465;-70
2022/10/18 06:24:25;;;;;;;74.87;38.70;;;15.60;99.90;;;;;;5089588;28;20967;-71
2022/10/18 06:26:52;;;;;;;101.30;38.83;;;15.70;99.90;;;;;;5089302;28;20481;-71
2022/10/18 06:29:18;;;;;;;393.40;48.90;;;15.60;99.90;;;;;;5087832;28;20458;-72
2022/10/18 06:31:47;;;;;;;177.40;44.13;;;15.50;99.90;;;;;;5086576;28;20465;-69
2022/10/18 06:34:15;;;;;;;297.83;46.13;;;15.60;99.90;;;;;;5091250;28;20457;-69
2022/10/18 06:36:42;;;;;;;69.30;38.23;;;15.60;99.90;;;;;;5089778;28;20462;-71
2022/10/18 06:39:10;;;;;;;55.63;37.50;;;15.60;99.90;;;;;;5084772;28;20450;-70
2022/10/18 06:41:37;;;;;;;52.57;37.50;;;15.60;99.90;;;;;;5083787;28;20461;-70
2022/10/18 06:44:12;;;;;;;59.83;38.80;;;15.70;99.90;;;;;;5079007;28;20490;-72
2022/10/18 06:46:39;;;;;;;55.00;40.67;;;15.60;99.90;;;;;;5089822;28;20924;-69
2022/10/18 06:49:06;;;;;;;54.50;39.20;;;15.70;99.90;;;;;;5089124;28;20549;-71
2022/10/18 06:51:35;;;;;;;66.37;39.17;;;15.70;99.90;;;;;;5091656;28;20467;-70
2022/10/18 06:54:02;;;;;;;57.40;39.53;;;15.70;99.90;;;;;;5081395;28;20471;-68
2022/10/18 06:56:29;;;;;;;86.23;41.57;;;15.70;99.90;;;;;;5087854;28;20592;-72
2022/10/18 06:58:56;;;;;;;74.47;40.43;;;15.70;99.90;;;;;;5094425;28;20469;-70
2022/10/18 07:01:24;;;;;;;74.33;40.57;;;15.80;99.90;;;;;;5091632;28;20492;-69
2022/10/18 07:03:53;;;;;;;101.47;41.97;;;15.70;99.90;;;;;;5082731;28;20488;-71
2022/10/18 07:06:20;;;;;;;100.03;44.63;;;15.70;99.90;;;;;;5082084;28;20559;-71
2022/10/18 07:08:51;;;;;;;107.30;43.53;;;15.80;99.90;;;;;;5086607;28;20462;-72
2022/10/18 07:11:20;;;;;;;102.73;43.90;;;15.90;99.90;;;;;;5076746;28;20462;-71
2022/10/18 07:13:47;;;;;;;139.37;48.70;;;15.90;99.90;;;;;;5089379;28;20580;-71
2022/10/18 07:16:15;;;;;;;98.33;45.10;;;15.90;99.90;;;;;;5090020;28;20932;-70
2022/10/18 07:18:43;;;;;;;90.77;44.20;;;16.00;99.90;;;;;;5088191;28;20488;-71
2022/10/18 07:21:13;;;;;;;134.77;47.90;;;16.10;99.90;;;;;;5086006;28;20466;-70
2022/10/18 07:23:41;;;;;;;144.93;48.90;;;16.10;99.90;;;;;;5093140;28;20486;-70
2022/10/18 07:26:14;;;;;;;101.83;45.20;;;16.20;99.90;;;;;;5091153;28;20794;-72
2022/10/18 07:28:41;;;;;;;110.30;47.30;;;16.20;99.90;;;;;;5102402;27;20490;-72
2022/10/18 07:31:09;;;;;;;113.83;44.90;;;16.20;99.90;;;;;;5109579;27;20519;-72
2022/10/18 07:33:37;;;;;;;90.43;43.07;;;16.30;99.90;;;;;;5103911;27;20474;-72
2022/10/18 07:36:06;;;;;;;89.33;45.43;;;16.40;99.90;;;;;;5109229;27;20549;-70
2022/10/18 07:38:34;;;;;;;106.67;44.70;;;16.40;99.90;;;;;;5114450;27;20491;-70
2022/10/18 07:41:02;;;;;;;104.33;44.83;;;16.40;99.90;;;;;;5111368;27;20465;-72
2022/10/18 07:43:31;;;;;;;90.70;43.37;;;16.40;99.90;;;;;;5107369;27;20752;-71
2022/10/18 07:45:59;;;;;;;133.47;47.37;;;16.40;99.90;;;;;;5102562;27;21025;-70
2022/10/18 07:48:26;;;;;;;104.00;47.50;;;16.40;99.90;;;;;;5106425;27;20460;-70
2022/10/18 07:50:53;;;;;;;119.63;47.40;;;16.40;99.90;;;;;;5102467;27;20477;-71
2022/10/18 07:53:20;;;;;;;105.10;45.77;;;16.40;99.90;;;;;;5106856;27;20461;-71
2022/10/18 07:55:47;;;;;;;104.93;48.57;;;16.50;99.90;;;;;;5105687;27;20500;-72
2022/10/18 07:58:14;;;;;;;153.37;49.27;;;16.50;99.90;;;;;;5107590;27;20534;-70
2022/10/18 08:00:42;;;;;;;113.50;44.73;;;16.50;99.90;;;;;;5114131;27;20528;-70
2022/10/18 08:03:09;;;;;;;116.03;47.50;;;16.50;99.90;;;;;;5105521;27;20463;-71
2022/10/18 08:05:35;;;;;;;110.90;47.03;;;16.40;99.90;;;;;;5102961;27;20516;-70
2022/10/18 08:08:02;;;;;;;121.17;47.20;;;16.50;99.90;;;;;;5108801;27;20454;-70
2022/10/18 08:10:30;;;;;;;100.87;46.27;;;16.50;99.90;;;;;;5109487;27;20480;-70
2022/10/18 08:12:57;;;;;;;99.10;47.07;;;16.50;99.90;;;;;;5104105;27;20485;-70
2022/10/18 08:15:24;;;;;;;93.20;43.00;;;16.50;99.90;;;;;;5107533;27;20464;-69
2022/10/18 08:17:53;;;;;;;97.90;43.73;;;16.60;99.90;;;;;;5101062;27;20461;-72
2022/10/18 08:20:20;;;;;;;98.93;42.40;;;16.60;99.90;;;;;;5106782;27;20453;-69
2022/10/18 08:22:50;;;;;;;90.33;41.43;;;16.70;99.90;;;;;;5110852;27;20452;-70
2022/10/18 08:25:18;;;;;;;97.67;42.47;;;16.80;99.90;;;;;;5111533;27;20492;-69
2022/10/18 08:27:45;;;;;;;95.20;43.23;;;16.80;99.90;;;;;;5106662;27;20488;-71
2022/10/18 08:30:13;;;;;;;88.87;42.00;;;16.90;99.90;;;;;;5109812;27;20457;-69
2022/10/18 08:32:40;;;;;;;87.93;45.67;;;16.80;99.90;;;;;;5103930;27;20638;-70
2022/10/18 08:35:10;;;;;;;83.17;41.00;;;16.90;99.90;;;;;;5105104;27;20484;-70
2022/10/18 08:37:39;;;;;;;86.53;41.87;;;17.10;99.90;;;;;;5104798;27;20457;-69
2022/10/18 08:40:07;;;;;;;78.00;40.87;;;17.10;99.90;;;;;;5107566;27;20465;-70
2022/10/18 08:42:51;;;;;;;81.10;42.13;;;17.10;99.90;;;;;;5107580;27;20466;-69
2022/10/18 08:45:18;;;;;;;81.97;41.77;;;17.10;99.90;;;;;;5108713;27;20556;-71
2022/10/18 08:47:50;;;;;;;73.10;39.73;;;17.10;99.90;;;;;;5108026;27;20492;-71
2022/10/18 08:50:22;;;;;;;84.57;39.47;;;17.30;99.90;;;;;;5105701;27;20453;-70
2022/10/18 08:52:53;;;;;;;76.13;41.00;;;17.40;99.90;;;;;;5107418;27;20528;-68
2022/10/18 08:55:24;;;;;;;77.97;40.33;;;17.60;99.90;;;;;;5099515;27;20464;-69
2022/10/18 08:57:51;;;;;;;70.00;37.33;;;17.80;99.90;;;;;;5108318;27;20466;-68
2022/10/18 09:00:21;;;;;;;75.20;40.17;;;18.10;99.90;;;;;;5108733;27;20475;-69
2022/10/18 09:03:04;;;;;;;62.20;38.60;;;18.10;99.90;;;;;;5108679;27;20491;-68
2022/10/18 09:05:43;;;;;;;67.67;36.83;;;18.50;99.90;;;;;;5110451;27;20492;-68
2022/10/18 09:08:28;;;;;;;63.10;38.20;;;18.60;99.90;;;;;;5105869;27;20971;-69
2022/10/18 09:11:06;;;;;;;61.27;35.80;;;18.70;99.90;;;;;;5104350;27;20864;-69
2022/10/18 09:13:59;;;;;;;64.40;34.57;;;18.80;99.90;;;;;;5109497;27;20487;-69
2022/10/18 09:16:34;;;;;;;65.00;36.63;;;18.70;99.90;;;;;;5097133;27;20468;-68
2022/10/18 09:19:10;;;;;;;58.70;37.33;;;18.60;99.90;;;;;;5096538;27;21075;-68
2022/10/18 09:21:47;;;;;;;57.83;35.50;;;18.40;99.90;;;;;;5105734;27;20467;-67
2022/10/18 09:24:21;;;;;;;56.37;36.73;;;18.30;99.90;;;;;;5109197;27;20500;-67
2022/10/18 09:26:52;;;;;;;60.10;35.60;;;18.30;99.90;;;;;;5107707;27;20485;-69
2022/10/18 09:29:37;;;;;;;54.57;33.60;;;18.30;99.90;;;;;;5105587;27;20461;-70
2022/10/18 09:32:14;;;;;;;56.70;34.90;;;18.20;99.90;;;;;;5101482;27;20472;-68
2022/10/18 09:34:46;;;;;;;55.20;35.53;;;18.00;99.90;;;;;;5102912;27;20473;-68
2022/10/18 09:37:18;;;;;;;53.50;33.50;;;18.00;99.90;;;;;;5111805;27;20714;-68
2022/10/18 09:39:48;;;;;;;55.10;36.10;;;18.00;99.90;;;;;;5108756;27;20461;-68
2022/10/18 09:42:25;;;;;;;52.87;32.70;;;18.10;99.90;;;;;;5104942;27;20484;-70
2022/10/18 09:44:55;;;;;;;61.40;36.47;;;18.20;99.90;;;;;;5101390;27;20486;-69
2022/10/18 09:47:26;;;;;;;58.97;34.87;;;18.10;99.90;;;;;;5104762;27;20737;-68
2022/10/18 09:49:57;;;;;;;56.00;33.77;;;17.90;99.90;;;;;;5099639;27;20461;-69
2022/10/18 09:52:37;;;;;;;65.33;34.70;;;17.70;99.90;;;;;;5102675;27;21149;-67
2022/10/18 09:55:10;;;;;;;54.27;33.80;;;17.50;99.90;;;;;;5098244;27;20461;-69
2022/10/18 09:57:42;;;;;;;51.93;32.23;;;17.40;99.90;;;;;;5104691;27;21010;-68
2022/10/18 10:00:16;;;;;;;60.40;34.20;;;17.20;99.90;;;;;;5105115;27;20539;-67
2022/10/18 10:02:43;;;;;;;55.67;33.03;;;17.10;99.90;;;;;;5105636;27;20518;-69
2022/10/18 10:05:12;;;;;;;55.40;33.73;;;17.10;99.90;;;;;;5098130;27;21014;-70
2022/10/18 10:07:46;;;;;;;53.90;31.97;;;17.00;99.90;;;;;;5100919;27;20548;-70
2022/10/18 10:10:18;;;;;;;60.30;31.90;;;17.10;99.90;;;;;;5104707;27;20449;-70
2022/10/18 10:12:46;;;;;;;56.87;32.50;;;17.10;99.90;;;;;;5097114;27;20839;-71
2022/10/18 10:15:19;;;;;;;61.53;31.27;;;17.20;99.90;;;;;;5100110;27;20457;-68
2022/10/18 10:17:56;;;;;;;57.43;33.00;;;17.40;99.90;;;;;;5109539;27;20463;-67
2022/10/18 10:20:24;;;;;;;56.13;33.37;;;17.50;99.90;;;;;;5105766;27;20841;-69
2022/10/18 10:22:53;;;;;;;54.37;33.57;;;17.50;99.90;;;;;;5099833;27;20453;-69
2022/10/18 10:25:25;;;;;;;61.70;33.83;;;17.40;99.90;;;;;;5105243;27;20995;-70
2022/10/18 10:27:52;;;;;;;61.07;34.83;;;17.50;99.90;;;;;;5107373;27;20492;-69
2022/10/18 10:30:26;;;;;;;66.03;32.37;;;17.40;99.90;;;;;;5102308;27;20465;-68
2022/10/18 10:32:54;;;;;;;58.17;32.40;;;17.30;99.90;;;;;;5108304;27;20522;-69
2022/10/18 10:35:30;;;;;;;59.10;32.30;;;17.30;99.90;;;;;;5081095;27;20487;-68
2022/10/18 10:37:58;;;;;;;49.20;31.10;;;17.20;99.90;;;;;;5101632;27;20451;-68
2022/10/18 10:40:26;;;;;;;49.73;30.30;;;17.30;99.90;;;;;;5108752;27;20884;-68
2022/10/18 10:43:03;;;;;;;51.80;30.93;;;17.40;99.90;;;;;;5102322;27;20453;-68
2022/10/18 10:45:33;;;;;;;55.70;32.13;;;17.50;99.90;;;;;;5106746;27;20569;-68
2022/10/18 10:48:14;;;;;;;55.67;31.73;;;17.50;99.90;;;;;;5104662;27;20475;-68
2022/10/18 10:50:55;;;;;;;55.70;30.67;;;17.60;99.90;;;;;;5101724;27;20966;-69
2022/10/18 10:53:30;;;;;;;52.67;28.37;;;17.80;99.90;;;;;;5104942;27;20456;-68
2022/10/18 10:55:58;;;;;;;50.20;31.17;;;17.80;99.90;;;;;;5103736;27;20467;-71
2022/10/18 10:58:27;;;;;;;53.27;31.90;;;18.00;99.90;;;;;;5102093;27;20546;-67
2022/10/18 11:00:57;;;;;;;47.83;30.70;;;18.10;99.90;;;;;;5104063;27;20570;-68
2022/10/18 11:03:24;;;;;;;50.10;31.40;;;18.40;99.90;;;;;;5103026;28;20453;-69
2022/10/18 11:05:54;;;;;;;52.70;31.27;;;18.50;99.90;;;;;;5108485;27;20493;-69
2022/10/18 11:08:23;;;;;;;54.00;31.03;;;18.60;99.90;;;;;;5103816;27;20463;-71
2022/10/18 11:11:02;;;;;;;48.50;30.67;;;18.80;99.90;;;;;;5105017;28;20495;-69
2022/10/18 11:13:40;;;;;;;48.73;31.80;;;19.00;99.90;;;;;;5101755;27;21100;-68
2022/10/18 11:16:14;;;;;;;51.83;32.10;;;19.10;99.90;;;;;;5105202;27;20546;-68
2022/10/18 11:18:46;;;;;;;40.87;32.07;;;19.20;99.90;;;;;;5103561;28;20817;-69
2022/10/18 11:21:18;;;;;;;45.03;30.80;;;19.20;99.90;;;;;;5104880;28;20453;-71
2022/10/18 11:23:45;;;;;;;48.13;32.77;;;19.40;99.90;;;;;;5103094;28;20480;-69
2022/10/18 11:26:26;;;;;;;39.87;30.53;;;19.80;99.90;;;;;;5103017;28;21880;-70
2022/10/18 11:29:08;;;;;;;37.50;30.27;;;21.00;99.90;;;;;;5102023;28;20506;-69
2022/10/18 11:31:41;;;;;;;38.67;29.33;;;22.10;99.90;;;;;;5105214;28;20927;-69
2022/10/18 11:34:21;;;;;;;37.40;29.90;;;23.10;99.90;;;;;;5102537;28;20461;-68
2022/10/18 11:36:58;;;;;;;34.30;30.87;;;23.50;99.90;;;;;;5101031;28;20452;-67
2022/10/18 11:39:33;;;;;;;34.03;30.53;;;24.00;99.90;;;;;;5105996;28;20525;-71
2022/10/18 11:42:09;;;;;;;32.80;29.40;;;24.40;99.90;;;;;;5106446;28;20459;-71
2022/10/18 11:44:41;;;;;;;39.13;30.63;;;24.10;99.90;;;;;;5094096;28;20487;-69
2022/10/18 11:47:18;;;;;;;33.97;30.33;;;24.40;99.90;;;;;;5101007;28;20457;-70
2022/10/18 11:49:55;;;;;;;33.50;29.77;;;25.10;99.90;;;;;;5106576;28;20886;-68
2022/10/18 11:52:33;;;;;;;34.80;31.07;;;25.00;99.90;;;;;;5103943;27;20457;-69
2022/10/18 11:55:16;;;;;;;36.00;31.80;;;25.00;99.90;;;;;;5095392;28;20517;-71
2022/10/18 11:57:51;;;;;;;34.90;31.13;;;24.50;99.90;;;;;;5096450;28;20461;-69
2022/10/18 12:00:38;;;;;;;36.70;32.20;;;24.20;99.90;;;;;;5099315;28;20470;-69
2022/10/18 12:03:25;;;;;;;43.60;32.40;;;23.60;99.90;;;;;;5097431;28;20468;-69
2022/10/18 12:05:54;;;;;;;43.57;32.57;;;24.00;99.90;;;;;;5100894;28;20537;-70
2022/10/18 12:08:28;;;;;;;34.27;30.90;;;25.00;99.90;;;;;;5103294;28;20492;-68
2022/10/18 12:10:58;;;;;;;35.20;29.50;;;25.30;99.90;;;;;;5105388;27;20450;-69
2022/10/18 12:13:36;;;;;;;34.57;30.70;;;24.90;99.90;;;;;;5104170;27;20453;-70
2022/10/18 12:16:04;;;;;;;35.10;29.10;;;25.50;99.90;;;;;;5104316;27;20461;-69
2022/10/18 12:18:33;;;;;;;29.87;26.97;;;25.10;99.90;;;;;;5109321;27;20462;-69
2022/10/18 12:21:02;;;;;;;29.20;26.40;;;24.20;99.90;;;;;;5096551;27;20535;-70
2022/10/18 12:23:36;;;;;;;29.10;26.40;;;23.70;99.90;;;;;;5101494;27;20480;-69
2022/10/18 12:26:06;;;;;;;30.63;27.17;;;22.50;99.90;;;;;;5105651;27;20476;-69
2022/10/18 12:28:45;;;;;;;30.13;27.03;;;21.80;99.90;;;;;;5109522;27;20504;-68
2022/10/18 12:31:19;;;;;;;29.37;25.83;;;21.80;99.90;;;;;;5102783;27;20460;-68
2022/10/18 12:33:49;;;;;;;36.50;25.30;;;22.20;99.90;;;;;;5098382;27;20472;-68
2022/10/18 12:36:30;;;;;;;26.17;23.10;;;22.60;99.90;;;;;;5096807;27;20889;-70
2022/10/18 12:38:59;;;;;;;26.93;24.23;;;23.20;99.90;;;;;;5102684;27;20469;-69
2022/10/18 12:41:28;;;;;;;28.87;25.97;;;23.20;99.90;;;;;;5105075;27;20543;-69
2022/10/18 12:44:01;;;;;;;26.87;24.17;;;24.10;99.90;;;;;;5107170;27;20461;-69